createdAt,value
2018-11-06T00:01:09.604Z,74.67
2018-11-06T00:03:44.815Z,68.20
2018-11-06T00:06:15.275Z,64.60
2018-11-06T00:08:45.647Z,69.60
2018-11-06T00:11:16.028Z,63.37
2018-11-06T00:13:46.575Z,69.73
2018-11-06T00:16:16.924Z,97.17
2018-11-06T00:18:47.259Z,134.07
2018-11-06T00:21:17.555Z,114.87
2018-11-06T00:23:48.054Z,68.50
2018-11-06T00:26:18.204Z,63.47
2018-11-06T00:28:48.714Z,146.80
2018-11-06T00:31:19.295Z,135.27
2018-11-06T00:33:49.852Z,143.53
2018-11-06T00:36:20.271Z,320.13
2018-11-06T00:38:50.735Z,366.73
2018-11-06T00:41:20.991Z,239.13
2018-11-06T00:43:53.981Z,244.03
2018-11-06T00:46:24.318Z,220.33
2018-11-06T00:48:54.692Z,203.17
2018-11-06T00:51:25.004Z,114.50
2018-11-06T00:53:55.345Z,115.80
2018-11-06T00:56:25.642Z,138.13
2018-11-06T00:58:56.012Z,103.67
2018-11-06T01:01:26.422Z,90.97
2018-11-06T01:04:01.865Z,92.27
2018-11-06T01:06:32.072Z,122.17
2018-11-06T01:09:02.463Z,114.53
2018-11-06T01:11:32.951Z,142.27
2018-11-06T01:14:03.557Z,129.10
2018-11-06T01:16:34.140Z,119.90
2018-11-06T01:19:04.517Z,108.53
2018-11-06T01:21:34.975Z,120.20
2018-11-06T01:24:05.525Z,109.43
2018-11-06T01:26:36.031Z,90.87
2018-11-06T01:29:06.918Z,95.13
2018-11-06T01:31:37.316Z,79.60
2018-11-06T01:34:07.805Z,94.90
2018-11-06T01:36:38.046Z,107.47
2018-11-06T01:39:10.347Z,87.90
2018-11-06T01:41:40.791Z,83.93
2018-11-06T01:44:11.269Z,90.77
2018-11-06T01:46:42.123Z,109.10
2018-11-06T01:49:12.633Z,110.53
2018-11-06T01:51:43.043Z,117.40
2018-11-06T01:54:13.499Z,88.77
2018-11-06T01:56:43.984Z,92.83
2018-11-06T01:59:14.363Z,132.83
2018-11-06T02:01:44.739Z,130.27
2018-11-06T02:04:14.999Z,80.23
2018-11-06T02:06:45.393Z,88.87
2018-11-06T02:09:15.953Z,86.40
2018-11-06T02:11:46.445Z,109.30
2018-11-06T02:14:16.814Z,115.77
2018-11-06T02:16:46.986Z,84.20
2018-11-06T02:19:17.360Z,97.27
2018-11-06T02:21:47.666Z,111.23
2018-11-06T02:24:18.151Z,118.53
2018-11-06T02:26:48.505Z,130.63
2018-11-06T02:29:19.739Z,117.40
2018-11-06T02:31:50.096Z,145.63
2018-11-06T02:34:21.075Z,141.63
2018-11-06T02:36:51.445Z,123.83
2018-11-06T02:39:22.005Z,107.57
2018-11-06T02:41:52.541Z,106.17
2018-11-06T02:44:22.931Z,93.73
2018-11-06T02:46:53.563Z,107.40
2018-11-06T02:49:24.106Z,104.50
2018-11-06T02:51:54.329Z,84.53
2018-11-06T02:54:24.705Z,82.90
2018-11-06T02:56:55.161Z,113.97
2018-11-06T02:59:25.676Z,104.77
2018-11-06T03:01:56.003Z,104.10
2018-11-06T03:04:26.336Z,100.97
2018-11-06T03:06:56.647Z,102.17
2018-11-06T03:09:27.026Z,99.43
2018-11-06T03:11:57.696Z,111.93
2018-11-06T03:14:27.900Z,119.60
2018-11-06T03:16:58.494Z,100.73
2018-11-06T03:19:28.746Z,94.73
2018-11-06T03:21:59.196Z,119.33
2018-11-06T03:24:29.694Z,105.67
2018-11-06T03:27:01.011Z,112.80
2018-11-06T03:29:31.291Z,120.93
2018-11-06T03:32:01.666Z,110.33
2018-11-06T03:37:08.581Z,77.27
2018-11-06T03:39:38.838Z,83.00
2018-11-06T03:42:09.198Z,92.13
2018-11-06T03:44:39.827Z,97.07
2018-11-06T03:47:10.083Z,81.47
2018-11-06T03:49:40.337Z,109.57
2018-11-06T03:52:10.723Z,90.77
2018-11-06T03:54:41.314Z,98.60
2018-11-06T03:57:11.852Z,118.73
2018-11-06T03:59:42.405Z,102.30
2018-11-06T04:02:12.728Z,90.43
2018-11-06T04:04:43.114Z,90.93
2018-11-06T04:07:13.439Z,77.40
2018-11-06T04:09:43.676Z,82.20
2018-11-06T04:12:14.067Z,87.67
2018-11-06T04:14:43.786Z,96.53
2018-11-06T04:17:14.013Z,61.23
2018-11-06T04:19:44.399Z,73.10
2018-11-06T04:22:14.786Z,75.83
2018-11-06T04:24:45.136Z,66.10
2018-11-06T04:27:15.547Z,67.37
2018-11-06T04:29:46.021Z,75.47
2018-11-06T04:32:16.517Z,106.03
2018-11-06T04:34:47.024Z,108.67
2018-11-06T04:37:17.348Z,98.23
2018-11-06T04:39:47.825Z,88.00
2018-11-06T04:42:18.164Z,99.57
2018-11-06T04:44:48.731Z,72.40
2018-11-06T04:47:19.317Z,75.70
2018-11-06T04:49:49.673Z,86.67
2018-11-06T04:52:20.027Z,65.40
2018-11-06T04:54:50.347Z,62.87
2018-11-06T04:57:20.929Z,74.20
2018-11-06T04:59:51.412Z,67.33
2018-11-06T05:02:21.864Z,79.17
2018-11-06T05:04:52.447Z,76.80
2018-11-06T05:07:22.720Z,77.07
2018-11-06T05:09:53.003Z,62.37
2018-11-06T05:12:23.277Z,74.53
2018-11-06T05:14:53.771Z,57.40
2018-11-06T05:17:23.956Z,70.93
2018-11-06T05:19:54.316Z,71.10
2018-11-06T05:22:24.691Z,72.50
2018-11-06T05:24:55.273Z,65.13
2018-11-06T05:27:25.835Z,64.67
2018-11-06T05:29:56.278Z,70.80
2018-11-06T05:32:26.648Z,67.50
2018-11-06T05:34:57.119Z,91.40
2018-11-06T05:37:27.637Z,86.30
2018-11-06T05:40:14.526Z,97.60
2018-11-06T05:42:44.731Z,88.27
2018-11-06T05:45:15.387Z,71.43
2018-11-06T05:47:45.448Z,101.00
2018-11-06T05:50:15.512Z,81.03
2018-11-06T05:52:45.639Z,89.93
2018-11-06T05:55:15.808Z,92.87
2018-11-06T05:57:45.811Z,70.33
2018-11-06T06:00:15.916Z,74.67
2018-11-06T06:02:46.358Z,91.97
2018-11-06T06:05:16.735Z,93.20
2018-11-06T06:07:47.194Z,76.53
2018-11-06T06:10:17.647Z,77.20
2018-11-06T06:12:48.093Z,64.63
2018-11-06T06:15:18.493Z,65.13
2018-11-06T06:17:48.824Z,73.70
2018-11-06T06:20:19.259Z,75.03
2018-11-06T06:22:49.751Z,102.03
2018-11-06T06:25:20.163Z,107.60
2018-11-06T06:27:50.536Z,103.57
2018-11-06T06:30:21.117Z,94.57
2018-11-06T06:32:51.599Z,78.97
2018-11-06T06:35:22.188Z,76.53
2018-11-06T06:37:52.580Z,74.90
2018-11-06T06:40:23.041Z,70.97
2018-11-06T06:42:53.305Z,74.00
2018-11-06T06:45:24.638Z,76.83
2018-11-06T06:47:54.959Z,64.87
2018-11-06T06:50:25.460Z,67.97
2018-11-06T06:52:55.662Z,76.23
2018-11-06T06:55:26.015Z,61.90
2018-11-06T06:57:56.460Z,63.60
2018-11-06T07:00:26.891Z,71.00
2018-11-06T07:02:57.082Z,60.90
2018-11-06T07:05:27.652Z,55.47
2018-11-06T07:07:57.960Z,71.43
2018-11-06T07:10:28.847Z,59.37
2018-11-06T07:12:59.445Z,50.70
2018-11-06T07:15:29.784Z,49.83
2018-11-06T07:18:00.191Z,48.77
2018-11-06T07:20:30.510Z,50.43
2018-11-06T07:23:00.741Z,48.60
2018-11-06T07:25:31.110Z,44.23
2018-11-06T07:28:01.355Z,50.53
2018-11-06T07:30:31.968Z,44.70
2018-11-06T07:33:02.593Z,43.70
2018-11-06T07:35:34.074Z,44.97
2018-11-06T07:38:04.351Z,45.53
2018-11-06T07:40:34.883Z,41.67
2018-11-06T07:43:05.220Z,41.10
2018-11-06T07:45:35.667Z,35.50
2018-11-06T07:48:06.201Z,43.20
2018-11-06T07:50:36.527Z,43.20
2018-11-06T07:53:07.033Z,37.50
2018-11-06T07:55:38.023Z,36.23
2018-11-06T07:58:08.533Z,42.57
2018-11-06T08:00:39.015Z,38.73
2018-11-06T08:03:09.479Z,45.33
2018-11-06T08:05:39.856Z,34.03
2018-11-06T08:08:10.199Z,36.13
2018-11-06T08:10:40.674Z,38.83
2018-11-06T08:13:11.095Z,42.63
2018-11-06T08:15:41.705Z,48.93
2018-11-06T08:18:11.936Z,45.97
2018-11-06T08:20:42.291Z,49.07
2018-11-06T08:23:12.519Z,43.13
2018-11-06T08:25:42.847Z,53.97
2018-11-06T08:28:13.190Z,55.63
2018-11-06T08:30:43.696Z,47.67
2018-11-06T08:33:14.132Z,43.13
2018-11-06T08:35:44.477Z,54.70
2018-11-06T08:38:14.663Z,49.00
2018-11-06T08:40:45.150Z,49.50
2018-11-06T08:43:15.563Z,46.97
2018-11-06T08:45:45.805Z,48.00
2018-11-06T08:48:16.080Z,47.20
2018-11-06T08:50:46.616Z,45.37
2018-11-06T08:53:17.200Z,42.23
2018-11-06T08:55:47.743Z,40.33
2018-11-06T08:58:18.064Z,43.33
2018-11-06T09:00:48.485Z,45.20
2018-11-06T09:03:18.841Z,52.50
2018-11-06T09:05:49.264Z,48.13
2018-11-06T09:08:19.648Z,43.67
2018-11-06T09:10:49.905Z,49.13
2018-11-06T09:13:20.271Z,47.33
2018-11-06T09:15:50.824Z,53.87
2018-11-06T09:18:21.279Z,51.53
2018-11-06T09:20:51.815Z,50.53
2018-11-06T09:23:22.008Z,47.87
2018-11-06T09:25:52.400Z,55.40
2018-11-06T09:28:22.895Z,51.60
2018-11-06T09:30:53.576Z,45.80
2018-11-06T09:33:23.963Z,58.30
2018-11-06T09:35:54.191Z,48.47
2018-11-06T09:38:24.590Z,47.27
2018-11-06T09:40:55.052Z,55.00
2018-11-06T09:43:25.385Z,52.83
2018-11-06T09:45:55.951Z,52.80
2018-11-06T09:48:26.223Z,50.20
2018-11-06T09:50:56.698Z,51.93
2018-11-06T09:53:27.013Z,48.57
2018-11-06T09:55:57.462Z,44.90
2018-11-06T09:58:27.835Z,49.87
2018-11-06T10:00:58.309Z,56.60
2018-11-06T10:03:28.610Z,54.20
2018-11-06T10:05:59.173Z,48.40
2018-11-06T10:08:31.550Z,47.63
2018-11-06T10:11:02.107Z,43.60
2018-11-06T10:13:32.691Z,41.87
2018-11-06T10:16:03.048Z,53.00
2018-11-06T10:18:33.325Z,44.47
2018-11-06T10:21:03.825Z,52.43
2018-11-06T10:23:34.302Z,47.10
2018-11-06T10:26:04.898Z,48.73
2018-11-06T10:28:35.473Z,51.67
2018-11-06T10:31:06.158Z,51.03
2018-11-06T10:33:36.640Z,45.53
2018-11-06T10:36:07.199Z,47.23
2018-11-06T10:38:37.488Z,45.43
2018-11-06T10:41:08.096Z,43.83
2018-11-06T10:43:38.638Z,39.80
2018-11-06T10:46:10.085Z,50.97
2018-11-06T10:48:40.898Z,42.20
2018-11-06T10:51:11.411Z,44.77
2018-11-06T10:53:41.719Z,41.87
2018-11-06T10:56:13.032Z,43.40
2018-11-06T10:58:44.226Z,50.20
2018-11-06T11:01:19.716Z,45.37
2018-11-06T11:03:55.025Z,48.40
2018-11-06T11:06:25.383Z,49.13
2018-11-06T11:08:55.699Z,47.90
2018-11-06T11:11:26.143Z,46.97
2018-11-06T11:13:56.503Z,49.67
2018-11-06T11:16:27.039Z,44.90
2018-11-06T11:18:57.260Z,49.23
2018-11-06T11:21:27.772Z,44.97
2018-11-06T11:23:58.255Z,47.00
2018-11-06T11:26:28.820Z,45.77
2018-11-06T11:28:59.427Z,45.80
2018-11-06T11:31:30.028Z,50.57
2018-11-06T11:34:00.270Z,45.33
2018-11-06T11:36:30.743Z,47.37
2018-11-06T11:39:01.129Z,47.87
2018-11-06T11:41:31.630Z,46.97
2018-11-06T11:44:02.172Z,44.93
2018-11-06T11:46:32.384Z,46.23
2018-11-06T11:49:02.972Z,43.07
2018-11-06T11:51:33.479Z,44.07
2018-11-06T11:54:03.850Z,54.67
2018-11-06T11:56:34.300Z,50.43
2018-11-06T11:59:05.235Z,47.03
2018-11-06T12:01:35.587Z,42.30
2018-11-06T12:04:06.707Z,47.93
2018-11-06T12:06:36.928Z,36.40
2018-11-06T12:09:10.267Z,43.30
2018-11-06T12:11:40.862Z,39.83
2018-11-06T12:14:11.339Z,41.27
2018-11-06T12:16:41.884Z,47.17
2018-11-06T12:19:12.348Z,40.60
2018-11-06T12:21:42.836Z,46.53
2018-11-06T12:24:13.377Z,41.10
2018-11-06T12:26:43.774Z,46.73
2018-11-06T12:29:14.054Z,43.87
2018-11-06T12:31:44.814Z,42.43
2018-11-06T12:34:15.249Z,36.43
2018-11-06T12:36:45.603Z,46.03
2018-11-06T12:39:16.219Z,41.27
2018-11-06T12:41:46.762Z,38.87
2018-11-06T12:44:17.180Z,41.53
2018-11-06T12:46:47.427Z,40.87
2018-11-06T12:49:17.988Z,35.33
2018-11-06T12:51:48.401Z,33.93
2018-11-06T12:54:18.788Z,37.37
2018-11-06T12:56:49.072Z,36.97
2018-11-06T12:59:19.649Z,35.33
2018-11-06T13:01:50.239Z,49.87
2018-11-06T13:04:20.804Z,30.60
2018-11-06T13:06:51.279Z,43.97
2018-11-06T13:09:21.540Z,35.50
2018-11-06T13:11:51.903Z,35.57
2018-11-06T13:14:22.309Z,40.80
2018-11-06T13:16:52.910Z,41.13
2018-11-06T13:19:23.418Z,34.30
2018-11-06T13:21:53.827Z,42.87
2018-11-06T13:24:24.151Z,39.67
2018-11-06T13:26:54.662Z,34.07
2018-11-06T13:29:25.094Z,37.43
2018-11-06T13:31:55.595Z,36.87
2018-11-06T13:34:26.055Z,34.37
2018-11-06T13:36:56.658Z,38.50
2018-11-06T13:39:26.948Z,36.30
2018-11-06T13:41:57.317Z,39.13
2018-11-06T13:44:28.000Z,39.60
2018-11-06T13:46:58.862Z,34.50
2018-11-06T13:49:29.185Z,39.13
2018-11-06T13:51:59.589Z,48.97
2018-11-06T13:54:30.039Z,33.20
2018-11-06T13:57:00.263Z,36.30
2018-11-06T13:59:30.673Z,37.90
2018-11-06T14:02:01.216Z,35.63
2018-11-06T14:04:31.662Z,36.00
2018-11-06T14:07:02.407Z,39.23
2018-11-06T14:09:32.596Z,42.43
2018-11-06T14:12:02.873Z,49.50
2018-11-06T14:14:33.289Z,33.43
2018-11-06T14:17:03.675Z,37.67
2018-11-06T14:19:34.066Z,42.77
2018-11-06T14:22:04.440Z,35.90
2018-11-06T14:24:34.698Z,41.00
2018-11-06T14:27:05.118Z,37.97
2018-11-06T14:29:35.344Z,39.40
2018-11-06T14:32:05.736Z,44.50
2018-11-06T14:34:36.326Z,44.33
2018-11-06T14:37:07.064Z,35.40
2018-11-06T14:39:37.480Z,37.47
2018-11-06T14:42:08.186Z,39.30
2018-11-06T14:44:38.544Z,42.93
2018-11-06T14:47:09.137Z,47.80
2018-11-06T14:49:39.632Z,42.57
2018-11-06T14:52:10.111Z,40.17
2018-11-06T14:54:40.603Z,38.13
2018-11-06T14:57:11.059Z,44.30
2018-11-06T14:59:42.340Z,36.20
2018-11-06T15:02:12.819Z,43.17
2018-11-06T15:04:43.228Z,38.00
2018-11-06T15:07:13.720Z,45.40
2018-11-06T15:09:44.188Z,42.80
2018-11-06T15:12:14.650Z,42.60
2018-11-06T15:14:45.131Z,45.50
2018-11-06T15:17:15.972Z,43.37
2018-11-06T15:19:46.427Z,38.67
2018-11-06T15:22:17.011Z,42.43
2018-11-06T15:24:47.516Z,45.20
2018-11-06T15:27:17.760Z,43.47
2018-11-06T15:29:48.144Z,49.90
2018-11-06T15:32:18.759Z,47.77
2018-11-06T15:34:49.215Z,41.90
2018-11-06T15:37:19.580Z,41.30
2018-11-06T15:39:49.972Z,44.27
2018-11-06T15:42:20.883Z,47.87
2018-11-06T15:44:51.324Z,49.33
2018-11-06T15:47:21.756Z,45.33
2018-11-06T15:49:52.207Z,47.87
2018-11-06T15:52:23.116Z,53.57
2018-11-06T15:54:53.565Z,48.60
2018-11-06T15:57:24.173Z,56.70
2018-11-06T15:59:54.675Z,46.97
2018-11-06T16:02:25.017Z,54.87
2018-11-06T16:04:55.404Z,50.63
2018-11-06T16:07:25.664Z,50.70
2018-11-06T16:09:56.178Z,52.80
2018-11-06T16:12:26.533Z,54.67
2018-11-06T16:14:56.807Z,54.77
2018-11-06T16:17:27.303Z,54.47
2018-11-06T16:19:57.768Z,72.93
2018-11-06T16:22:28.362Z,57.30
2018-11-06T16:24:58.774Z,69.33
2018-11-06T16:27:29.302Z,64.43
2018-11-06T16:30:00.026Z,66.50
2018-11-06T16:32:30.417Z,55.80
2018-11-06T16:35:00.889Z,64.63
2018-11-06T16:37:31.364Z,55.70
2018-11-06T16:40:01.841Z,60.93
2018-11-06T16:42:32.207Z,60.97
2018-11-06T16:45:02.668Z,64.63
2018-11-06T16:47:33.055Z,62.47
2018-11-06T16:50:03.481Z,66.40
2018-11-06T16:52:33.822Z,63.43
2018-11-06T16:55:04.235Z,59.03
2018-11-06T16:57:34.668Z,63.13
2018-11-06T17:00:05.642Z,64.60
2018-11-06T17:02:37.312Z,59.97
2018-11-06T17:05:09.889Z,57.47
2018-11-06T17:07:40.472Z,57.90
2018-11-06T17:10:12.655Z,60.97
2018-11-06T17:12:43.137Z,59.10
2018-11-06T17:15:17.075Z,54.47
2018-11-06T17:17:48.420Z,59.70
2018-11-06T17:20:19.241Z,61.67
2018-11-06T17:22:49.773Z,64.13
2018-11-06T17:25:21.279Z,57.00
2018-11-06T17:27:51.541Z,71.40
2018-11-06T17:30:22.004Z,55.77
2018-11-06T17:32:52.634Z,59.90
2018-11-06T17:35:23.091Z,57.60
2018-11-06T17:37:53.543Z,57.03
2018-11-06T17:40:23.831Z,58.87
2018-11-06T17:42:54.323Z,57.17
2018-11-06T17:45:25.397Z,58.80
2018-11-06T17:47:55.995Z,65.30
2018-11-06T17:50:26.347Z,65.90
2018-11-06T17:52:56.888Z,62.70
2018-11-06T17:55:27.379Z,66.40
2018-11-06T17:57:57.960Z,59.70
2018-11-06T18:00:28.446Z,67.90
2018-11-06T18:02:58.940Z,66.50
2018-11-06T18:05:29.379Z,57.67
2018-11-06T18:07:59.840Z,58.67
2018-11-06T18:10:31.055Z,61.53
2018-11-06T18:13:01.432Z,61.60
2018-11-06T18:15:32.060Z,58.77
2018-11-06T18:18:02.703Z,60.20
2018-11-06T18:20:32.860Z,58.47
2018-11-06T18:23:03.579Z,61.73
2018-11-06T18:25:33.974Z,60.43
2018-11-06T18:28:04.528Z,55.97
2018-11-06T18:30:34.924Z,57.97
2018-11-06T18:33:05.297Z,60.83
2018-11-06T18:35:35.555Z,57.77
2018-11-06T18:38:06.265Z,58.80
2018-11-06T18:40:36.660Z,64.10
2018-11-06T18:43:07.328Z,59.60
2018-11-06T18:45:37.834Z,61.67
2018-11-06T18:48:08.415Z,62.60
2018-11-06T18:50:38.627Z,63.00
2018-11-06T18:53:09.141Z,62.63
2018-11-06T18:55:39.529Z,68.67
2018-11-06T18:58:10.147Z,64.20
2018-11-06T19:00:40.390Z,62.93
2018-11-06T19:03:10.661Z,59.80
2018-11-06T19:05:41.155Z,68.03
2018-11-06T19:08:12.107Z,61.07
2018-11-06T19:10:42.680Z,59.47
2018-11-06T19:13:13.274Z,56.83
2018-11-06T19:15:43.601Z,68.83
2018-11-06T19:18:13.953Z,71.37
2018-11-06T19:20:44.325Z,62.40
2018-11-06T19:23:14.739Z,82.43
2018-11-06T19:25:45.320Z,61.40
2018-11-06T19:28:16.377Z,66.83
2018-11-06T19:30:46.896Z,63.67
2018-11-06T19:33:18.019Z,65.47
2018-11-06T19:35:48.549Z,63.53
2018-11-06T19:38:19.086Z,61.00
2018-11-06T19:40:49.453Z,68.87
2018-11-06T19:43:19.792Z,70.97
2018-11-06T19:45:50.279Z,77.57
2018-11-06T19:48:20.821Z,69.27
2018-11-06T19:50:51.571Z,69.77
2018-11-06T19:53:22.340Z,61.07
2018-11-06T19:55:52.680Z,58.50
2018-11-06T19:58:23.318Z,50.20
2018-11-06T20:00:53.699Z,57.70
2018-11-06T20:03:24.105Z,67.33
2018-11-06T20:05:54.693Z,70.90
2018-11-06T20:08:25.224Z,61.43
2018-11-06T20:10:55.645Z,66.80
2018-11-06T20:13:26.078Z,62.90
2018-11-06T20:15:56.482Z,70.80
2018-11-06T20:18:26.852Z,76.43
2018-11-06T20:20:57.352Z,60.97
2018-11-06T20:23:27.866Z,75.00
2018-11-06T20:25:58.340Z,59.73
2018-11-06T20:28:28.808Z,63.13
2018-11-06T20:30:59.060Z,58.00
2018-11-06T20:33:29.594Z,62.43
2018-11-06T20:36:00.012Z,55.43
2018-11-06T20:38:30.608Z,66.90
2018-11-06T20:41:01.106Z,58.47
2018-11-06T20:43:31.708Z,57.57
2018-11-06T20:46:02.110Z,56.47
2018-11-06T20:48:32.560Z,58.63
2018-11-06T20:51:03.139Z,73.37
2018-11-06T20:53:33.690Z,105.97
2018-11-06T20:56:04.174Z,116.50
2018-11-06T20:58:34.676Z,96.47
2018-11-06T21:01:05.192Z,102.67
2018-11-06T21:03:36.691Z,99.80
2018-11-06T21:06:07.137Z,80.33
2018-11-06T21:08:37.435Z,86.97
2018-11-06T21:11:07.988Z,76.57
2018-11-06T21:13:38.363Z,71.93
2018-11-06T21:16:08.674Z,70.40
2018-11-06T21:18:39.176Z,70.70
2018-11-06T21:21:13.516Z,83.23
2018-11-06T21:23:45.125Z,79.33
2018-11-06T21:26:15.595Z,82.93
2018-11-06T21:28:45.849Z,73.23
2018-11-06T21:31:16.201Z,75.00
2018-11-06T21:33:46.826Z,81.57
2018-11-06T21:36:16.987Z,62.13
2018-11-06T21:38:47.411Z,67.70
2018-11-06T21:41:17.862Z,61.93
2018-11-06T21:43:48.439Z,67.53
2018-11-06T21:46:18.757Z,66.13
2018-11-06T21:48:49.253Z,64.80
2018-11-06T21:51:19.593Z,69.33
2018-11-06T21:53:49.967Z,63.90
2018-11-06T21:56:20.481Z,58.80
2018-11-06T21:58:50.901Z,52.00
2018-11-06T22:01:21.101Z,49.57
2018-11-06T22:03:51.604Z,56.03
2018-11-06T22:06:22.088Z,57.83
2018-11-06T22:08:52.575Z,46.93
2018-11-06T22:11:23.157Z,50.37
2018-11-06T22:13:53.515Z,51.27
2018-11-06T22:16:23.938Z,67.67
2018-11-06T22:18:54.273Z,49.93
2018-11-06T22:21:24.633Z,49.70
2018-11-06T22:23:54.912Z,44.53
2018-11-06T22:26:25.331Z,59.47
2018-11-06T22:28:55.807Z,63.60
2018-11-06T22:31:26.409Z,61.30
2018-11-06T22:33:56.899Z,58.90
2018-11-06T22:36:27.296Z,48.90
2018-11-06T22:38:57.604Z,64.80
2018-11-06T22:41:28.007Z,73.97
2018-11-06T22:43:58.399Z,82.63
2018-11-06T22:46:28.648Z,56.80
2018-11-06T22:48:58.912Z,53.30
2018-11-06T22:51:29.239Z,79.67
2018-11-06T22:53:59.729Z,88.70
2018-11-06T22:56:30.179Z,62.20
2018-11-06T22:59:00.559Z,71.33
2018-11-06T23:01:30.845Z,53.27
2018-11-06T23:48:35.616Z,47.83
2018-11-06T23:51:05.973Z,44.50
2018-11-06T23:53:36.356Z,47.80
2018-11-06T23:56:06.683Z,53.80
2018-11-06T23:58:37.026Z,50.43
